createdAt,value
2022-08-30T00:00:44.405Z,98292.76
2022-08-30T00:03:18.295Z,98290.11
2022-08-30T00:05:52.543Z,98296.50
2022-08-30T00:08:27.724Z,98285.09
2022-08-30T00:11:01.760Z,98283.23
2022-08-30T00:13:36.757Z,98280.59
2022-08-30T00:16:10.792Z,98270.91
2022-08-30T00:18:44.460Z,98275.57
2022-08-30T00:21:17.978Z,98284.61
2022-08-30T00:23:51.199Z,98291.80
2022-08-30T00:26:24.663Z,98282.12
2022-08-30T00:28:59.056Z,98291.05
2022-08-30T00:31:32.642Z,98296.47
2022-08-30T00:34:06.752Z,98290.48
2022-08-30T00:36:39.956Z,98287.03
2022-08-30T00:39:13.588Z,98297.63
2022-08-30T00:41:46.936Z,98284.54
2022-08-30T00:44:20.226Z,98288.03
2022-08-30T00:46:53.464Z,98281.24
2022-08-30T00:49:27.404Z,98285.82
2022-08-30T00:52:01.805Z,98273.77
2022-08-30T00:54:38.195Z,98285.37
2022-08-30T00:57:14.335Z,98282.08
2022-08-30T00:59:50.380Z,98280.43
2022-08-30T01:02:26.770Z,98274.44
2022-08-30T01:05:02.003Z,98275.36
2022-08-30T01:07:35.566Z,98266.69
2022-08-30T01:10:11.780Z,98272.98
2022-08-30T01:12:46.619Z,98268.61
2022-08-30T01:15:19.924Z,98269.56
2022-08-30T01:17:54.495Z,98267.84
2022-08-30T01:23:17.035Z,98261.47
2022-08-30T01:25:52.466Z,98270.03
2022-08-30T01:28:29.260Z,98266.66
2022-08-30T01:31:02.693Z,98269.38
2022-08-30T01:33:37.612Z,98267.81
2022-08-30T01:36:14.373Z,98250.42
2022-08-30T01:38:50.087Z,98254.98
2022-08-30T01:41:26.078Z,98255.80
2022-08-30T01:44:03.627Z,98251.61
2022-08-30T01:46:39.706Z,98245.55
2022-08-30T01:49:16.359Z,98244.73
2022-08-30T01:51:49.654Z,98255.48
2022-08-30T01:54:27.262Z,98250.41
2022-08-30T01:57:00.299Z,98248.69
2022-08-30T01:59:33.708Z,98254.98
2022-08-30T02:02:07.730Z,98253.47
2022-08-30T02:04:40.942Z,98255.39
2022-08-30T02:07:14.234Z,98254.66
2022-08-30T02:09:50.192Z,98253.88
2022-08-30T02:12:24.967Z,98254.91
2022-08-30T02:14:58.315Z,98256.78
2022-08-30T02:17:33.263Z,98258.62
2022-08-30T02:20:08.906Z,98258.62
2022-08-30T02:22:47.577Z,98260.67
2022-08-30T02:25:21.173Z,98255.45
2022-08-30T02:27:52.655Z,98252.88
2022-08-30T02:30:26.109Z,98249.42
2022-08-30T02:32:59.383Z,98259.16
2022-08-30T02:35:33.647Z,98261.92
2022-08-30T02:38:07.180Z,98261.21
2022-08-30T02:40:44.766Z,98264.70
2022-08-30T02:43:18.547Z,98258.60
2022-08-30T02:45:52.089Z,98264.84
2022-08-30T02:48:25.657Z,98277.27
2022-08-30T02:51:00.494Z,98274.69
2022-08-30T02:53:34.075Z,98273.03
2022-08-30T02:56:08.103Z,98269.50
2022-08-30T02:58:42.943Z,98268.66
2022-08-30T03:01:18.634Z,98266.02
2022-08-30T03:03:52.166Z,98268.66
2022-08-30T03:06:28.228Z,98275.78
2022-08-30T03:09:01.831Z,98261.64
2022-08-30T03:11:36.435Z,98263.44
2022-08-30T03:14:09.776Z,98267.73
2022-08-30T03:16:43.055Z,98267.67
2022-08-30T03:19:16.349Z,98280.96
2022-08-30T03:21:50.598Z,98272.15
2022-08-30T03:24:24.154Z,98273.80
2022-08-30T03:26:57.335Z,98277.27
2022-08-30T03:29:31.781Z,98278.84
2022-08-30T03:32:05.840Z,98275.14
2022-08-30T03:34:39.972Z,98270.52
2022-08-30T03:37:13.667Z,98276.47
2022-08-30T03:39:47.266Z,98288.46
2022-08-30T03:42:22.078Z,98284.68
2022-08-30T03:44:57.080Z,98288.13
2022-08-30T03:47:30.735Z,98286.30
2022-08-30T03:50:05.209Z,98279.02
2022-08-30T03:52:40.974Z,98281.70
2022-08-30T03:55:15.422Z,98281.70
2022-08-30T03:57:48.609Z,98287.73
2022-08-30T04:00:24.307Z,98284.90
2022-08-30T04:02:57.776Z,98287.55
2022-08-30T04:05:35.141Z,98285.59
2022-08-30T04:08:09.345Z,98290.66
2022-08-30T04:10:42.536Z,98295.11
2022-08-30T04:13:15.990Z,98297.61
2022-08-30T04:15:49.396Z,98287.95
2022-08-30T04:18:23.101Z,98280.73
2022-08-30T04:20:56.288Z,98293.56
2022-08-30T04:23:29.453Z,98291.56
2022-08-30T04:26:02.673Z,98295.60
2022-08-30T04:28:36.255Z,98298.17
2022-08-30T04:31:13.419Z,98301.47
2022-08-30T04:33:49.365Z,98299.75
2022-08-30T04:36:27.141Z,98295.06
2022-08-30T04:39:03.012Z,98295.48
2022-08-30T04:41:40.788Z,98298.50
2022-08-30T04:44:19.525Z,98297.58
2022-08-30T04:46:52.219Z,98298.23
2022-08-30T04:49:25.444Z,98289.84
2022-08-30T04:51:59.380Z,98289.69
2022-08-30T04:54:34.546Z,98288.75
2022-08-30T04:57:09.934Z,98292.05
2022-08-30T04:59:43.283Z,98288.34
2022-08-30T05:02:16.554Z,98290.63
2022-08-30T05:05:07.574Z,98296.33
2022-08-30T05:07:41.613Z,98294.48
2022-08-30T05:10:15.648Z,98290.91
2022-08-30T05:12:49.099Z,98288.09
2022-08-30T05:15:24.881Z,98290.23
2022-08-30T05:18:01.072Z,98288.14
2022-08-30T05:20:36.329Z,98294.13
2022-08-30T05:23:12.287Z,98299.00
2022-08-30T05:25:46.940Z,98289.07
2022-08-30T05:28:24.238Z,98292.30
2022-08-30T05:30:59.547Z,98285.81
2022-08-30T05:33:38.821Z,98288.16
2022-08-30T05:36:11.882Z,98297.77
2022-08-30T05:38:47.853Z,98294.72
2022-08-30T05:41:30.760Z,98297.16
2022-08-30T05:44:06.433Z,98293.40
2022-08-30T05:46:43.813Z,98299.25
2022-08-30T05:49:37.858Z,98295.97
2022-08-30T05:52:12.948Z,98301.58
2022-08-30T05:54:46.699Z,98301.94
2022-08-30T05:57:22.818Z,98300.42
2022-08-30T05:59:56.159Z,98303.86
2022-08-30T06:05:19.644Z,98310.13
2022-08-30T06:07:53.170Z,98300.70
2022-08-30T06:10:26.577Z,98306.53
2022-08-30T06:13:01.882Z,98303.96
2022-08-30T06:15:35.612Z,98309.55
2022-08-30T06:18:09.141Z,98310.99
2022-08-30T06:20:44.433Z,98308.41
2022-08-30T06:23:18.691Z,98309.41
2022-08-30T06:25:52.187Z,98309.84
2022-08-30T06:28:25.438Z,98310.09
2022-08-30T06:31:00.651Z,98305.04
2022-08-30T06:33:33.992Z,98298.86
2022-08-30T06:36:08.887Z,98302.72
2022-08-30T06:38:43.109Z,98303.35
2022-08-30T06:41:19.207Z,98302.10
2022-08-30T06:43:52.904Z,98299.66
2022-08-30T06:46:28.797Z,98289.76
2022-08-30T06:49:03.269Z,98299.31
2022-08-30T06:51:39.843Z,98304.95
2022-08-30T06:54:15.156Z,98307.86
2022-08-30T06:56:58.147Z,98305.86
2022-08-30T06:59:23.899Z,98295.53
2022-08-30T07:01:58.397Z,98293.82
2022-08-30T07:04:31.750Z,98295.34
2022-08-30T07:07:05.491Z,98309.11
2022-08-30T07:09:41.709Z,98308.81
2022-08-30T07:12:16.062Z,98294.66
2022-08-30T07:14:49.966Z,98299.39
2022-08-30T07:17:42.269Z,98295.73
2022-08-30T07:20:18.674Z,98299.88
2022-08-30T07:22:57.194Z,98309.97
2022-08-30T07:25:30.806Z,98315.13
2022-08-30T07:28:04.179Z,98307.07
2022-08-30T07:30:38.576Z,98309.72
2022-08-30T07:33:12.134Z,98314.97
2022-08-30T07:35:45.509Z,98314.56
2022-08-30T07:38:18.999Z,98311.34
2022-08-30T07:40:53.134Z,98310.84
2022-08-30T07:43:27.208Z,98308.30
2022-08-30T07:46:05.457Z,98311.32
2022-08-30T07:48:39.050Z,98314.36
2022-08-30T07:51:18.357Z,98312.81
2022-08-30T07:53:52.161Z,98314.97
2022-08-30T07:56:26.478Z,98314.75
2022-08-30T07:59:00.934Z,98317.94
2022-08-30T08:04:16.541Z,98322.20
2022-08-30T08:06:50.209Z,98312.22
2022-08-30T08:09:23.549Z,98313.06
2022-08-30T08:11:57.091Z,98314.27
2022-08-30T08:14:30.418Z,98322.03
2022-08-30T08:17:05.188Z,98314.00
2022-08-30T08:19:38.374Z,98311.78
2022-08-30T08:22:20.828Z,98313.58
2022-08-30T08:24:47.544Z,98316.22
2022-08-30T08:27:24.951Z,98319.47
2022-08-30T08:29:58.522Z,98324.82
2022-08-30T08:32:31.808Z,98316.09
2022-08-30T08:35:05.423Z,98307.33
2022-08-30T08:37:39.282Z,98313.91
2022-08-30T08:40:17.111Z,98311.05
2022-08-30T08:43:02.872Z,98300.59
2022-08-30T08:45:49.452Z,98307.50
2022-08-30T08:48:45.556Z,98316.02
2022-08-30T08:51:24.784Z,98303.64
2022-08-30T08:54:02.022Z,98309.73
2022-08-30T08:56:38.014Z,98321.09
2022-08-30T08:59:13.430Z,98317.31
2022-08-30T09:01:48.063Z,98314.47
2022-08-30T09:04:24.230Z,98320.80
2022-08-30T09:07:01.121Z,98318.95
2022-08-30T09:09:38.271Z,98326.42
2022-08-30T09:12:15.281Z,98318.38
2022-08-30T09:14:51.389Z,98314.77
2022-08-30T09:17:26.506Z,98316.95
2022-08-30T09:20:03.258Z,98328.42
2022-08-30T09:22:39.574Z,98337.69
2022-08-30T09:25:17.679Z,98331.74
2022-08-30T09:27:54.108Z,98334.80
2022-08-30T09:30:29.741Z,98322.31
2022-08-30T09:33:05.453Z,98323.63
2022-08-30T09:35:41.804Z,98327.89
2022-08-30T09:38:20.249Z,98331.71
2022-08-30T09:40:55.838Z,98343.52
2022-08-30T09:43:31.263Z,98344.11
2022-08-30T09:46:16.457Z,98338.23
2022-08-30T09:48:48.872Z,98331.66
2022-08-30T09:51:41.096Z,98338.13
2022-08-30T09:54:21.158Z,98334.93
2022-08-30T09:57:01.855Z,98324.28
2022-08-30T09:59:46.796Z,98332.13
2022-08-30T10:02:37.485Z,98331.73
2022-08-30T10:05:14.186Z,98342.75
2022-08-30T10:07:53.562Z,98333.69
2022-08-30T10:10:30.949Z,98334.17
2022-08-30T10:13:15.458Z,98339.30
2022-08-30T10:15:51.984Z,98329.77
2022-08-30T10:18:28.264Z,98325.62
2022-08-30T10:21:06.667Z,98327.62
2022-08-30T10:23:43.133Z,98332.88
2022-08-30T10:26:19.430Z,98322.20
2022-08-30T10:28:55.545Z,98316.50
2022-08-30T10:31:31.737Z,98340.91
2022-08-30T10:34:08.801Z,98333.59
2022-08-30T10:36:46.314Z,98344.17
2022-08-30T10:39:23.423Z,98331.37
2022-08-30T10:42:06.095Z,98324.73
2022-08-30T10:44:44.549Z,98335.09
2022-08-30T10:47:24.190Z,98335.70
2022-08-30T10:50:04.559Z,98329.17
2022-08-30T10:52:42.599Z,98333.55
2022-08-30T10:55:22.289Z,98338.67
2022-08-30T10:57:57.209Z,98324.53
2022-08-30T11:00:35.050Z,98332.53
2022-08-30T11:03:30.984Z,98326.35
2022-08-30T11:06:12.795Z,98334.95
2022-08-30T11:09:04.802Z,98332.22
2022-08-30T11:11:48.496Z,98327.58
2022-08-30T11:14:25.680Z,98320.72
2022-08-30T11:17:03.152Z,98325.80
2022-08-30T11:19:41.349Z,98318.78
2022-08-30T11:22:18.568Z,98313.25
2022-08-30T11:25:11.451Z,98313.05
2022-08-30T11:27:49.609Z,98307.50
2022-08-30T11:30:50.610Z,98309.96
2022-08-30T11:37:09.576Z,98316.05
2022-08-30T11:40:04.673Z,98321.92
2022-08-30T11:42:42.996Z,98313.44
2022-08-30T11:45:48.132Z,98321.53
2022-08-30T11:48:55.145Z,98316.91
2022-08-30T11:54:46.484Z,98312.98
2022-08-30T11:57:24.779Z,98310.81
2022-08-30T12:00:04.282Z,98308.80
2022-08-30T12:05:59.598Z,98299.73
2022-08-30T12:09:08.277Z,98312.69
2022-08-30T12:12:10.206Z,98302.57
2022-08-30T12:14:55.885Z,98298.74
2022-08-30T12:17:53.591Z,98300.94
2022-08-30T12:20:30.471Z,98294.78
2022-08-30T12:23:13.461Z,98293.33
2022-08-30T12:25:46.976Z,98285.16
2022-08-30T12:28:24.625Z,98317.06
2022-08-30T12:30:59.580Z,98307.65
2022-08-30T12:33:40.359Z,98303.73
2022-08-30T12:36:17.154Z,98328.85
2022-08-30T12:38:51.690Z,98326.59
2022-08-30T12:41:28.331Z,98312.16
2022-08-30T12:44:03.482Z,98309.59
2022-08-30T12:46:38.813Z,98314.94
2022-08-30T12:49:14.799Z,98314.44
2022-08-30T12:51:49.531Z,98311.38
2022-08-30T12:54:25.274Z,98313.80
2022-08-30T12:59:59.661Z,98308.61
2022-08-30T13:02:33.123Z,98309.34
2022-08-30T13:05:06.980Z,98306.64
2022-08-30T13:07:40.106Z,98300.41
2022-08-30T13:10:20.054Z,98297.72
2022-08-30T13:13:05.549Z,98294.73
2022-08-30T13:15:43.751Z,98303.59
2022-08-30T13:18:30.092Z,98293.87
2022-08-30T13:21:25.613Z,98295.72
2022-08-30T13:24:02.453Z,98292.17
2022-08-30T13:26:37.795Z,98287.66
2022-08-30T13:29:17.972Z,98280.48
2022-08-30T13:31:51.561Z,98285.19
2022-08-30T13:34:25.043Z,98283.25
2022-08-30T13:37:00.028Z,98281.08
2022-08-30T13:39:33.563Z,98272.53
2022-08-30T13:48:43.483Z,98275.53
2022-08-30T13:51:39.172Z,98268.22
2022-08-30T13:54:12.608Z,98262.64
2022-08-30T13:56:46.696Z,98257.70
2022-08-30T13:59:22.295Z,98260.21
2022-08-30T14:02:12.883Z,98257.97
2022-08-30T14:04:32.974Z,98258.73
2022-08-30T14:07:19.839Z,98260.44
2022-08-30T14:09:42.075Z,98247.11
2022-08-30T14:15:03.217Z,98245.36
2022-08-30T14:17:38.651Z,98238.12
2022-08-30T14:20:16.795Z,98229.56
2022-08-30T14:22:49.339Z,98240.13
2022-08-30T14:25:23.024Z,98235.30
2022-08-30T14:27:58.502Z,98224.90
2022-08-30T14:30:32.181Z,98223.72
2022-08-30T14:33:06.961Z,98209.33
2022-08-30T14:35:42.565Z,98216.04
2022-08-30T14:38:16.413Z,98210.10
2022-08-30T14:40:54.586Z,98215.19
2022-08-30T14:43:32.319Z,98221.29
2022-08-30T14:46:07.206Z,98225.33
2022-08-30T14:48:43.063Z,98230.31
2022-08-30T14:51:19.276Z,98228.45
2022-08-30T14:57:19.398Z,98225.69
2022-08-30T15:20:28.729Z,98212.92
2022-08-30T15:23:22.975Z,98221.77
2022-08-30T15:26:05.826Z,98217.27
2022-08-30T15:29:12.327Z,98204.95
2022-08-30T15:32:32.053Z,98212.65
2022-08-30T15:35:52.959Z,98212.34
2022-08-30T15:38:42.923Z,98222.44
2022-08-30T15:41:23.495Z,98215.99
2022-08-30T15:43:58.894Z,98209.52
2022-08-30T15:46:34.876Z,98205.27
2022-08-30T15:49:11.494Z,98216.92
2022-08-30T15:51:47.532Z,98209.71
2022-08-30T15:54:24.792Z,98213.23
2022-08-30T15:57:01.702Z,98219.05
2022-08-30T15:59:36.127Z,98223.16
2022-08-30T16:02:11.467Z,98214.55
2022-08-30T16:04:49.165Z,98218.88
2022-08-30T16:07:25.451Z,98222.12
2022-08-30T16:09:59.247Z,98224.02
2022-08-30T16:12:37.215Z,98230.98
2022-08-30T16:15:14.149Z,98208.94
2022-08-30T16:18:05.072Z,98218.34
2022-08-30T16:20:39.714Z,98221.62
2022-08-30T16:23:13.432Z,98223.70
2022-08-30T16:25:47.088Z,98219.23
2022-08-30T16:28:20.814Z,98214.86
2022-08-30T16:31:12.182Z,98206.45
2022-08-30T16:33:41.157Z,98210.87
2022-08-30T16:36:12.650Z,98214.91
2022-08-30T16:38:46.299Z,98214.17
2022-08-30T16:41:24.083Z,98213.95
2022-08-30T16:44:03.644Z,98212.69
2022-08-30T16:46:37.305Z,98211.11
2022-08-30T16:49:14.769Z,98212.69
2022-08-30T16:51:48.167Z,98204.03
2022-08-30T16:54:24.297Z,98209.42
2022-08-30T16:56:57.681Z,98202.95
2022-08-30T16:59:31.059Z,98208.18
2022-08-30T17:02:05.048Z,98205.88
2022-08-30T17:04:38.517Z,98205.88
2022-08-30T17:07:13.815Z,98204.30
2022-08-30T17:09:47.842Z,98196.73
2022-08-30T17:12:22.179Z,98195.48
2022-08-30T17:14:58.101Z,98199.86
2022-08-30T17:17:43.714Z,98197.27
2022-08-30T17:20:24.071Z,98193.68
2022-08-30T17:23:02.483Z,98191.96
2022-08-30T17:25:41.183Z,98183.67
2022-08-30T17:28:16.706Z,98190.33
2022-08-30T17:30:57.362Z,98192.88
2022-08-30T17:33:32.615Z,98190.70
2022-08-30T17:36:09.004Z,98188.31
2022-08-30T17:38:45.108Z,98176.73
2022-08-30T17:41:20.900Z,98178.69
2022-08-30T17:43:59.375Z,98171.63
2022-08-30T17:46:47.182Z,98173.96
2022-08-30T17:49:22.217Z,98176.14
2022-08-30T17:51:57.156Z,98172.37
2022-08-30T17:54:37.479Z,98168.11
2022-08-30T17:57:13.224Z,98178.82
2022-08-30T17:59:50.290Z,98173.84
2022-08-30T18:02:30.263Z,98169.06
2022-08-30T18:08:00.688Z,98172.06
2022-08-30T18:10:34.707Z,98175.83
2022-08-30T18:16:06.727Z,98179.47
2022-08-30T18:18:52.629Z,98172.41
2022-08-30T18:21:33.404Z,98167.05
2022-08-30T18:24:08.636Z,98169.43
2022-08-30T18:26:44.809Z,98169.02
2022-08-30T18:29:26.296Z,98172.05
2022-08-30T18:31:59.415Z,98176.38
2022-08-30T18:34:38.245Z,98165.61
2022-08-30T18:37:14.029Z,98172.39
2022-08-30T18:39:48.478Z,98166.45
2022-08-30T18:42:23.113Z,98146.78
2022-08-30T18:44:56.286Z,98156.69
2022-08-30T18:47:29.919Z,98158.43
2022-08-30T18:50:05.130Z,98155.31
2022-08-30T18:52:38.871Z,98150.05
2022-08-30T18:55:14.032Z,98141.40
2022-08-30T18:57:49.228Z,98150.05
2022-08-30T19:00:22.706Z,98139.89
2022-08-30T19:02:55.972Z,98139.34
2022-08-30T19:05:29.831Z,98133.13
2022-08-30T19:08:03.860Z,98121.61
2022-08-30T19:10:38.831Z,98128.55
2022-08-30T19:13:13.722Z,98121.39
2022-08-30T19:15:47.228Z,98113.06
2022-08-30T19:18:21.201Z,98123.89
2022-08-30T19:20:54.411Z,98119.98
2022-08-30T19:23:34.089Z,98114.14
2022-08-30T19:26:04.129Z,98106.20
2022-08-30T19:28:38.151Z,98103.53
2022-08-30T19:31:11.393Z,98114.54
2022-08-30T19:33:44.759Z,98106.70
2022-08-30T19:36:18.075Z,98112.92
2022-08-30T19:38:51.432Z,98119.98
2022-08-30T19:41:25.146Z,98118.66
2022-08-30T19:44:01.246Z,98116.60
2022-08-30T19:46:34.477Z,98119.70
2022-08-30T19:49:10.651Z,98123.00
2022-08-30T19:51:46.512Z,98125.08
2022-08-30T19:54:20.311Z,98126.41
2022-08-30T19:56:54.645Z,98126.41
2022-08-30T19:59:28.054Z,98132.70
2022-08-30T20:02:23.197Z,98135.63
2022-08-30T20:04:58.174Z,98149.14
2022-08-30T20:07:34.526Z,98141.99
2022-08-30T20:10:10.975Z,98165.41
2022-08-30T20:12:47.556Z,98152.86
2022-08-30T20:15:20.776Z,98143.05
2022-08-30T20:18:05.192Z,98145.91
2022-08-30T20:20:29.782Z,98151.94
2022-08-30T20:23:03.033Z,98126.24
2022-08-30T20:25:38.110Z,98136.23
2022-08-30T20:28:12.081Z,98138.48
2022-08-30T20:30:45.541Z,98131.98
2022-08-30T20:33:23.598Z,98122.58
2022-08-30T20:36:02.188Z,98119.23
2022-08-30T20:38:35.810Z,98124.75
2022-08-30T20:41:16.868Z,98123.02
2022-08-30T20:43:50.452Z,98122.25
2022-08-30T20:46:23.906Z,98124.84
2022-08-30T20:48:59.865Z,98131.59
2022-08-30T20:51:33.284Z,98137.50
2022-08-30T20:54:09.585Z,98131.49
2022-08-30T20:56:43.225Z,98131.00
2022-08-30T20:59:16.584Z,98128.89
2022-08-30T21:01:50.151Z,98124.85
2022-08-30T21:04:23.725Z,98120.51
2022-08-30T21:06:58.063Z,98121.45
2022-08-30T21:09:31.684Z,98121.36
2022-08-30T21:12:09.913Z,98138.52
2022-08-30T21:14:42.232Z,98138.05
2022-08-30T21:17:18.041Z,98134.64
2022-08-30T21:19:52.777Z,98145.43
2022-08-30T21:22:28.798Z,98138.34
2022-08-30T21:25:02.862Z,98129.39
2022-08-30T21:27:37.099Z,98124.67
2022-08-30T21:30:12.803Z,98118.26
2022-08-30T21:32:47.792Z,98123.77
2022-08-30T21:35:40.333Z,98122.13
2022-08-30T21:38:17.632Z,98113.31
2022-08-30T21:40:51.283Z,98109.09
2022-08-30T21:43:24.675Z,98106.72
2022-08-30T21:45:58.090Z,98109.80
2022-08-30T21:48:31.363Z,98092.33
2022-08-30T21:51:09.259Z,98093.36
2022-08-30T21:53:42.640Z,98094.48
2022-08-30T21:56:21.651Z,98095.50
2022-08-30T21:59:00.285Z,98100.03
2022-08-30T22:01:34.470Z,98095.75
2022-08-30T22:04:11.674Z,98091.70
2022-08-30T22:06:50.623Z,98089.33
2022-08-30T22:09:26.866Z,98082.63
2022-08-30T22:12:03.358Z,98080.98
2022-08-30T22:14:38.743Z,98068.92
2022-08-30T22:17:12.103Z,98070.94
2022-08-30T22:19:45.391Z,98072.80
2022-08-30T22:22:20.216Z,98079.92
2022-08-30T22:24:53.799Z,98082.76
2022-08-30T22:27:28.418Z,98079.91
2022-08-30T22:30:01.943Z,98075.95
2022-08-30T22:32:35.204Z,98079.62
2022-08-30T22:35:10.624Z,98067.55
2022-08-30T22:37:47.675Z,98066.98
2022-08-30T22:40:20.778Z,98068.09
2022-08-30T22:42:54.267Z,98065.00
2022-08-30T22:45:27.668Z,98060.72
2022-08-30T22:48:01.050Z,98064.38
2022-08-30T22:50:34.352Z,98050.51
2022-08-30T22:53:07.788Z,98070.00
2022-08-30T22:55:43.202Z,98072.03
2022-08-30T22:58:18.225Z,98074.94
2022-08-30T23:00:54.919Z,98068.14
2022-08-30T23:03:26.697Z,98068.22
2022-08-30T23:06:00.059Z,98070.95
2022-08-30T23:08:33.212Z,98072.78
2022-08-30T23:11:06.772Z,98073.80
2022-08-30T23:13:43.783Z,98062.57
2022-08-30T23:16:18.147Z,98080.45
2022-08-30T23:18:51.991Z,98083.31
2022-08-30T23:21:28.912Z,98079.11
2022-08-30T23:24:21.491Z,98073.89
2022-08-30T23:27:13.062Z,98079.49
2022-08-30T23:30:04.199Z,98070.91
2022-08-30T23:32:55.170Z,98065.91
2022-08-30T23:35:47.153Z,98071.38
2022-08-30T23:38:39.188Z,98078.53
2022-08-30T23:41:33.976Z,98088.44
2022-08-30T23:44:23.286Z,98071.20
2022-08-30T23:47:14.424Z,98071.48
2022-08-30T23:50:05.314Z,98069.92
2022-08-30T23:52:56.521Z,98067.41
2022-08-30T23:55:47.445Z,98069.45
2022-08-30T23:58:38.386Z,98071.30
